createdAt,value
2019-05-09T00:00:34.094Z,98.35
2019-05-09T00:05:37.610Z,98.15
2019-05-09T00:10:41.960Z,98.55
2019-05-09T00:15:46.340Z,98.22
2019-05-09T00:20:55.108Z,96.82
2019-05-09T00:25:58.487Z,97.77
2019-05-09T00:31:06.467Z,97.10
2019-05-09T00:36:09.713Z,97.57
2019-05-09T00:41:14.169Z,97.39
2019-05-09T00:46:29.187Z,97.26
2019-05-09T00:51:33.894Z,97.60
2019-05-09T00:56:37.195Z,97.25
2019-05-09T01:01:40.111Z,97.09
2019-05-09T01:06:43.538Z,97.75
2019-05-09T01:11:46.524Z,97.78
2019-05-09T01:16:49.698Z,97.86
2019-05-09T01:21:54.216Z,97.72
2019-05-09T01:26:57.593Z,98.13
2019-05-09T01:32:04.899Z,98.99
2019-05-09T01:37:13.912Z,98.83
2019-05-09T01:42:17.091Z,97.55
2019-05-09T01:47:20.056Z,98.33
2019-05-09T01:52:23.188Z,99.00
2019-05-09T01:57:26.368Z,99.07
2019-05-09T02:02:29.548Z,98.80
2019-05-09T02:07:33.241Z,98.59
2019-05-09T02:12:36.819Z,98.47
2019-05-09T02:18:05.403Z,97.80
2019-05-09T02:23:08.838Z,98.99
2019-05-09T02:28:14.043Z,98.67
2019-05-09T02:33:16.937Z,98.43
2019-05-09T02:38:20.107Z,97.98
2019-05-09T02:43:23.110Z,97.61
2019-05-09T02:48:28.829Z,98.52
2019-05-09T02:53:31.797Z,98.93
2019-05-09T02:58:43.631Z,98.48
2019-05-09T03:03:48.178Z,98.06
2019-05-09T03:08:51.929Z,97.43
2019-05-09T03:13:58.362Z,98.38
2019-05-09T03:19:00.538Z,99.08
2019-05-09T03:24:04.381Z,99.17
2019-05-09T03:29:19.109Z,98.42
2019-05-09T03:34:21.734Z,98.90
2019-05-09T03:39:27.639Z,99.24
2019-05-09T03:44:30.709Z,100.00
2019-05-09T03:49:34.026Z,99.70
2019-05-09T03:54:37.653Z,99.18
2019-05-09T03:59:41.563Z,100.00
2019-05-09T04:04:44.527Z,100.00
2019-05-09T04:09:48.087Z,99.35
2019-05-09T04:14:51.443Z,98.51
2019-05-09T04:19:54.599Z,97.00
2019-05-09T04:24:58.333Z,97.08
2019-05-09T04:30:01.504Z,96.44
2019-05-09T04:35:04.169Z,97.56
2019-05-09T04:40:08.224Z,98.24
2019-05-09T04:45:28.336Z,98.28
2019-05-09T04:50:31.681Z,99.65
2019-05-09T04:55:37.659Z,100.00
2019-05-09T05:00:59.197Z,99.80
2019-05-09T05:06:02.760Z,99.40
2019-05-09T05:11:07.498Z,97.28
2019-05-09T05:16:10.906Z,98.51
2019-05-09T05:21:14.753Z,99.60
2019-05-09T05:26:19.326Z,99.45
2019-05-09T05:31:22.236Z,98.11
2019-05-09T05:36:25.310Z,97.50
2019-05-09T05:41:28.838Z,97.60
2019-05-09T05:46:51.741Z,95.98
2019-05-09T05:51:57.520Z,96.09
2019-05-09T05:57:00.695Z,95.66
2019-05-09T06:02:04.256Z,92.95
2019-05-09T06:07:08.124Z,93.30
2019-05-09T06:12:11.474Z,93.68
2019-05-09T06:17:14.652Z,94.86
2019-05-09T06:22:18.513Z,93.46
2019-05-09T06:27:21.670Z,94.39
2019-05-09T06:32:24.962Z,93.95
2019-05-09T06:37:28.618Z,93.76
2019-05-09T06:42:32.388Z,93.81
2019-05-09T06:47:38.234Z,91.86
2019-05-09T06:52:42.737Z,93.10
2019-05-09T06:57:48.711Z,90.45
2019-05-09T07:03:00.734Z,87.11
2019-05-09T07:08:10.221Z,88.06
2019-05-09T07:13:12.823Z,89.72
2019-05-09T07:18:15.727Z,89.04
2019-05-09T07:23:18.301Z,88.57
2019-05-09T07:28:21.796Z,87.31
2019-05-09T07:33:39.281Z,84.82
2019-05-09T07:38:42.848Z,85.36
2019-05-09T07:43:47.611Z,87.42
2019-05-09T07:48:50.494Z,87.40
2019-05-09T07:53:53.644Z,88.08
2019-05-09T07:58:58.512Z,86.20
2019-05-09T08:04:02.024Z,85.25
2019-05-09T08:09:08.410Z,84.83
2019-05-09T08:14:11.719Z,84.79
2019-05-09T08:19:14.933Z,84.16
2019-05-09T08:24:18.376Z,83.81
2019-05-09T08:29:21.611Z,82.94
2019-05-09T08:34:25.178Z,82.45
2019-05-09T08:39:29.105Z,83.82
2019-05-09T08:44:32.883Z,82.90
2019-05-09T08:50:10.012Z,82.23
2019-05-09T08:55:13.020Z,80.22
2019-05-09T09:00:18.870Z,79.11
2019-05-09T09:05:21.025Z,78.96
2019-05-09T09:10:24.502Z,77.17
2019-05-09T09:15:50.026Z,75.20
2019-05-09T09:20:33.482Z,74.21
2019-05-09T09:25:38.883Z,77.59
2019-05-09T09:30:41.679Z,76.12
2019-05-09T09:35:44.965Z,74.96
2019-05-09T09:40:48.223Z,73.91
2019-05-09T09:46:06.262Z,75.59
2019-05-09T09:50:57.991Z,77.08
2019-05-09T09:56:01.437Z,79.14
2019-05-09T10:01:22.271Z,79.75
2019-05-09T10:06:25.413Z,76.75
2019-05-09T10:11:28.754Z,75.54
2019-05-09T10:16:44.588Z,77.18
2019-05-09T10:21:51.127Z,73.32
2019-05-09T10:27:10.724Z,72.47
2019-05-09T10:32:17.922Z,72.74
2019-05-09T10:37:20.598Z,68.56
2019-05-09T10:42:30.938Z,68.51
2019-05-09T10:47:34.413Z,68.58
2019-05-09T10:52:37.221Z,70.27
2019-05-09T10:57:42.605Z,67.01
2019-05-09T11:02:48.180Z,66.57
2019-05-09T11:07:51.124Z,65.19
2019-05-09T11:12:54.434Z,61.72
2019-05-09T11:17:58.129Z,62.14
2019-05-09T11:23:01.456Z,61.86
2019-05-09T11:28:10.910Z,59.54
2019-05-09T11:33:10.139Z,57.55
2019-05-09T11:38:13.295Z,61.71
2019-05-09T11:43:18.129Z,60.70
2019-05-09T11:48:21.489Z,56.37
2019-05-09T11:53:25.114Z,55.93
2019-05-09T11:58:28.238Z,55.30
2019-05-09T12:03:31.105Z,52.70
2019-05-09T12:08:34.372Z,50.98
2019-05-09T12:13:38.144Z,54.98
2019-05-09T12:18:40.990Z,57.84
2019-05-09T12:23:44.782Z,54.81
2019-05-09T12:28:48.621Z,56.00
2019-05-09T12:33:52.180Z,54.01
2019-05-09T12:38:58.754Z,51.11
2019-05-09T12:44:00.547Z,48.21
2019-05-09T12:49:04.143Z,48.52
2019-05-09T12:54:08.580Z,46.90
2019-05-09T12:59:11.669Z,50.44
2019-05-09T13:04:14.592Z,51.37
2019-05-09T13:09:18.007Z,52.52
2019-05-09T13:14:20.709Z,51.38
2019-05-09T13:19:27.943Z,49.48
2019-05-09T13:24:31.193Z,51.38
2019-05-09T13:29:34.723Z,49.58
2019-05-09T13:34:38.307Z,48.87
2019-05-09T13:39:41.567Z,47.86
2019-05-09T13:44:47.438Z,49.70
2019-05-09T13:49:50.544Z,49.88
2019-05-09T13:54:54.316Z,50.30
2019-05-09T13:59:59.629Z,53.57
2019-05-09T14:05:03.024Z,49.30
2019-05-09T14:10:09.053Z,44.96
2019-05-09T14:15:12.538Z,44.93
2019-05-09T14:20:18.003Z,45.14
2019-05-09T14:25:21.222Z,46.30
2019-05-09T14:30:27.376Z,49.36
2019-05-09T14:35:32.142Z,50.17
2019-05-09T14:40:37.184Z,46.49
2019-05-09T14:45:40.548Z,45.73
2019-05-09T14:50:43.793Z,47.16
2019-05-09T14:55:47.646Z,48.74
2019-05-09T15:00:52.069Z,52.28
2019-05-09T15:05:57.457Z,52.77
2019-05-09T15:11:00.977Z,55.03
2019-05-09T15:16:04.537Z,54.87
2019-05-09T15:21:08.053Z,55.80
2019-05-09T15:26:11.820Z,56.80
2019-05-09T15:31:15.142Z,56.49
2019-05-09T15:36:19.223Z,55.68
2019-05-09T15:41:22.872Z,56.09
2019-05-09T15:46:32.026Z,55.58
2019-05-09T15:51:38.478Z,50.96
2019-05-09T15:56:44.148Z,46.97
2019-05-09T16:01:49.452Z,47.86
2019-05-09T16:06:52.878Z,47.75
2019-05-09T16:11:56.022Z,50.17
2019-05-09T16:16:59.319Z,51.68
2019-05-09T16:22:02.199Z,55.71
2019-05-09T16:27:08.276Z,56.22
2019-05-09T16:32:11.409Z,53.25
2019-05-09T16:37:14.706Z,56.65
2019-05-09T16:42:17.967Z,58.01
2019-05-09T16:47:22.697Z,57.19
2019-05-09T16:52:26.342Z,58.87
2019-05-09T16:57:29.327Z,58.36
2019-05-09T17:02:32.836Z,57.95
2019-05-09T17:07:38.405Z,58.42
2019-05-09T17:12:42.136Z,59.82
2019-05-09T17:17:47.575Z,61.12
2019-05-09T17:23:13.475Z,62.48
2019-05-09T17:28:11.441Z,62.42
2019-05-09T17:33:14.862Z,63.20
2019-05-09T17:38:18.359Z,63.11
2019-05-09T17:43:21.622Z,63.23
2019-05-09T17:48:25.105Z,64.38
2019-05-09T17:53:29.323Z,64.97
2019-05-09T17:58:33.646Z,64.87
2019-05-09T18:03:38.480Z,66.11
2019-05-09T18:08:42.741Z,65.00
2019-05-09T18:13:48.118Z,65.03
2019-05-09T18:18:54.812Z,64.87
2019-05-09T18:23:58.781Z,66.11
2019-05-09T18:29:02.037Z,66.18
2019-05-09T18:34:07.792Z,66.48
2019-05-09T18:39:11.177Z,66.20
2019-05-09T18:44:14.209Z,66.92
2019-05-09T18:49:17.971Z,67.30
2019-05-09T18:54:21.252Z,67.25
2019-05-09T18:59:24.226Z,68.42
2019-05-09T19:04:27.302Z,69.26
2019-05-09T19:09:30.328Z,70.07
2019-05-09T19:14:33.378Z,70.84
2019-05-09T19:19:43.258Z,70.76
2019-05-09T19:24:46.797Z,70.71
2019-05-09T19:29:49.879Z,69.92
2019-05-09T19:34:53.307Z,70.75
2019-05-09T19:39:56.819Z,70.17
2019-05-09T19:45:00.605Z,70.37
2019-05-09T19:50:04.524Z,70.66
2019-05-09T19:55:08.349Z,70.41
2019-05-09T20:00:15.491Z,70.66
2019-05-09T20:05:18.435Z,70.46
2019-05-09T20:10:44.039Z,70.68
2019-05-09T20:15:57.538Z,70.79
2019-05-09T20:21:04.903Z,71.25
2019-05-09T20:26:16.930Z,71.49
2019-05-09T20:31:29.834Z,71.36
2019-05-09T20:36:38.820Z,71.49
2019-05-09T20:41:48.018Z,71.89
2019-05-09T20:46:52.718Z,73.08
2019-05-09T20:52:08.747Z,72.98
2019-05-09T20:57:13.944Z,73.36
2019-05-09T21:02:40.101Z,73.29
2019-05-09T21:07:48.053Z,72.70
2019-05-09T21:12:56.747Z,73.72
2019-05-09T21:18:02.870Z,74.11
2019-05-09T21:23:23.850Z,74.81
2019-05-09T21:28:18.042Z,75.13
2019-05-09T21:33:22.532Z,75.88
2019-05-09T21:38:30.311Z,76.33
2019-05-09T21:43:36.612Z,77.14
2019-05-09T21:48:41.191Z,77.36
2019-05-09T21:53:44.503Z,76.46
2019-05-09T21:58:47.391Z,76.03
2019-05-09T22:03:50.616Z,76.82
2019-05-09T22:08:55.292Z,76.76
2019-05-09T22:13:58.720Z,76.99
2019-05-09T22:19:02.366Z,76.27
2019-05-09T22:24:05.286Z,76.14
2019-05-09T22:29:08.943Z,77.42
2019-05-09T22:34:11.948Z,77.23
2019-05-09T22:39:15.182Z,77.69
2019-05-09T22:44:17.976Z,78.21
2019-05-09T22:49:20.621Z,78.25
2019-05-09T22:54:24.023Z,78.59
2019-05-09T22:59:27.294Z,78.95
2019-05-09T23:04:30.891Z,79.31
2019-05-09T23:09:34.541Z,78.90
2019-05-09T23:14:37.431Z,79.73
2019-05-09T23:19:40.922Z,79.95
2019-05-09T23:24:44.846Z,79.80
2019-05-09T23:29:48.376Z,81.41
2019-05-09T23:34:51.904Z,80.78
2019-05-09T23:39:54.909Z,80.63
2019-05-09T23:44:57.818Z,80.64
2019-05-09T23:50:01.032Z,80.58
2019-05-09T23:55:22.680Z,80.68
